sensor_id;sensor_type;location;lat;lon;timestamp;temperature;humidity
30148;DHT22;16960;49.404;8.248;2023-03-23T00:01:03;20.60;38.30
30148;DHT22;16960;49.404;8.248;2023-03-23T00:03:30;20.70;38.30
30148;DHT22;16960;49.404;8.248;2023-03-23T00:05:58;20.70;38.40
30148;DHT22;16960;49.404;8.248;2023-03-23T00:08:30;20.60;38.30
30148;DHT22;16960;49.404;8.248;2023-03-23T00:10:58;20.70;38.50
30148;DHT22;16960;49.404;8.248;2023-03-23T00:13:28;20.60;38.40
30148;DHT22;16960;49.404;8.248;2023-03-23T00:15:56;20.60;38.40
30148;DHT22;16960;49.404;8.248;2023-03-23T00:18:24;20.60;38.50
30148;DHT22;16960;49.404;8.248;2023-03-23T00:20:52;20.60;38.50
30148;DHT22;16960;49.404;8.248;2023-03-23T00:23:21;20.60;38.60
30148;DHT22;16960;49.404;8.248;2023-03-23T00:25:50;20.60;38.60
30148;DHT22;16960;49.404;8.248;2023-03-23T00:28:19;20.60;38.60
30148;DHT22;16960;49.404;8.248;2023-03-23T00:30:55;20.60;38.60
30148;DHT22;16960;49.404;8.248;2023-03-23T00:33:23;20.60;38.60
30148;DHT22;16960;49.404;8.248;2023-03-23T00:35:52;20.60;38.60
30148;DHT22;16960;49.404;8.248;2023-03-23T00:38:20;20.50;38.60
30148;DHT22;16960;49.404;8.248;2023-03-23T00:40:48;20.60;38.60
30148;DHT22;16960;49.404;8.248;2023-03-23T00:43:15;20.60;38.60
30148;DHT22;16960;49.404;8.248;2023-03-23T00:45:42;20.50;38.60
30148;DHT22;16960;49.404;8.248;2023-03-23T00:48:11;20.50;38.60
30148;DHT22;16960;49.404;8.248;2023-03-23T00:50:39;20.50;38.60
30148;DHT22;16960;49.404;8.248;2023-03-23T00:53:06;20.50;38.60
30148;DHT22;16960;49.404;8.248;2023-03-23T00:55:33;20.50;38.60
30148;DHT22;16960;49.404;8.248;2023-03-23T00:58:00;20.50;38.60
30148;DHT22;16960;49.404;8.248;2023-03-23T01:00:27;20.50;38.70
30148;DHT22;16960;49.404;8.248;2023-03-23T01:02:54;20.50;38.70
30148;DHT22;16960;49.404;8.248;2023-03-23T01:05:22;20.50;38.70
30148;DHT22;16960;49.404;8.248;2023-03-23T01:07:49;20.50;38.70
30148;DHT22;16960;49.404;8.248;2023-03-23T01:10:16;20.50;38.70
30148;DHT22;16960;49.404;8.248;2023-03-23T01:12:44;20.50;38.70
30148;DHT22;16960;49.404;8.248;2023-03-23T01:15:15;20.50;38.70
30148;DHT22;16960;49.404;8.248;2023-03-23T01:17:43;20.50;38.80
30148;DHT22;16960;49.404;8.248;2023-03-23T01:20:10;20.40;38.70
30148;DHT22;16960;49.404;8.248;2023-03-23T01:22:39;20.40;38.70
30148;DHT22;16960;49.404;8.248;2023-03-23T01:25:08;20.40;38.70
30148;DHT22;16960;49.404;8.248;2023-03-23T01:27:35;20.40;38.80
30148;DHT22;16960;49.404;8.248;2023-03-23T01:30:03;20.40;38.80
30148;DHT22;16960;49.404;8.248;2023-03-23T01:32:31;20.40;38.80
30148;DHT22;16960;49.404;8.248;2023-03-23T01:34:59;20.40;38.90
30148;DHT22;16960;49.404;8.248;2023-03-23T01:37:25;20.40;38.90
30148;DHT22;16960;49.404;8.248;2023-03-23T01:39:55;20.40;38.90
30148;DHT22;16960;49.404;8.248;2023-03-23T01:42:22;20.40;38.90
30148;DHT22;16960;49.404;8.248;2023-03-23T01:48:01;20.40;38.90
30148;DHT22;16960;49.404;8.248;2023-03-23T01:50:36;20.40;38.90
30148;DHT22;16960;49.404;8.248;2023-03-23T01:53:06;20.40;38.90
30148;DHT22;16960;49.404;8.248;2023-03-23T01:55:38;20.40;38.90
30148;DHT22;16960;49.404;8.248;2023-03-23T01:58:08;20.40;38.90
30148;DHT22;16960;49.404;8.248;2023-03-23T02:00:37;20.40;38.90
30148;DHT22;16960;49.404;8.248;2023-03-23T02:03:06;20.40;38.90
30148;DHT22;16960;49.404;8.248;2023-03-23T02:05:36;20.30;38.90
30148;DHT22;16960;49.404;8.248;2023-03-23T02:08:05;20.30;39.00
30148;DHT22;16960;49.404;8.248;2023-03-23T02:10:36;20.30;38.90
30148;DHT22;16960;49.404;8.248;2023-03-23T02:13:06;20.30;39.00
30148;DHT22;16960;49.404;8.248;2023-03-23T02:15:49;20.30;38.90
30148;DHT22;16960;49.404;8.248;2023-03-23T02:18:30;20.30;39.00
30148;DHT22;16960;49.404;8.248;2023-03-23T02:21:26;20.30;39.00
30148;DHT22;16960;49.404;8.248;2023-03-23T02:27:17;20.30;39.00
30148;DHT22;16960;49.404;8.248;2023-03-23T02:35:41;20.30;39.00
30148;DHT22;16960;49.404;8.248;2023-03-23T02:38:14;20.30;39.00
30148;DHT22;16960;49.404;8.248;2023-03-23T02:40:44;20.30;39.00
30148;DHT22;16960;49.404;8.248;2023-03-23T02:43:15;20.30;39.00
30148;DHT22;16960;49.404;8.248;2023-03-23T02:45:44;20.30;39.00
30148;DHT22;16960;49.404;8.248;2023-03-23T02:48:13;20.30;39.10
30148;DHT22;16960;49.404;8.248;2023-03-23T02:50:45;20.20;39.10
30148;DHT22;16960;49.404;8.248;2023-03-23T02:53:16;20.20;39.10
30148;DHT22;16960;49.404;8.248;2023-03-23T02:55:46;20.20;39.10
30148;DHT22;16960;49.404;8.248;2023-03-23T02:58:14;20.20;39.10
30148;DHT22;16960;49.404;8.248;2023-03-23T03:00:41;20.20;39.10
30148;DHT22;16960;49.404;8.248;2023-03-23T03:03:13;20.20;39.00
30148;DHT22;16960;49.404;8.248;2023-03-23T03:05:47;20.20;39.00
30148;DHT22;16960;49.404;8.248;2023-03-23T03:08:24;20.20;39.00
30148;DHT22;16960;49.404;8.248;2023-03-23T03:10:57;20.20;39.00
30148;DHT22;16960;49.404;8.248;2023-03-23T03:13:32;20.20;39.00
30148;DHT22;16960;49.404;8.248;2023-03-23T03:16:05;20.20;39.00
30148;DHT22;16960;49.404;8.248;2023-03-23T03:18:38;20.20;39.00
30148;DHT22;16960;49.404;8.248;2023-03-23T03:21:09;20.20;39.00
30148;DHT22;16960;49.404;8.248;2023-03-23T03:23:40;20.20;39.00
30148;DHT22;16960;49.404;8.248;2023-03-23T03:26:11;20.20;39.00
30148;DHT22;16960;49.404;8.248;2023-03-23T03:28:43;20.20;39.00
30148;DHT22;16960;49.404;8.248;2023-03-23T03:31:14;20.20;39.00
30148;DHT22;16960;49.404;8.248;2023-03-23T03:33:41;20.10;39.00
30148;DHT22;16960;49.404;8.248;2023-03-23T03:36:15;20.20;39.00
30148;DHT22;16960;49.404;8.248;2023-03-23T03:38:44;20.10;39.00
30148;DHT22;16960;49.404;8.248;2023-03-23T03:41:12;20.10;39.10
30148;DHT22;16960;49.404;8.248;2023-03-23T03:43:39;20.10;39.10
30148;DHT22;16960;49.404;8.248;2023-03-23T03:46:06;20.10;39.10
30148;DHT22;16960;49.404;8.248;2023-03-23T03:48:34;20.10;39.10
30148;DHT22;16960;49.404;8.248;2023-03-23T03:51:01;20.10;39.10
30148;DHT22;16960;49.404;8.248;2023-03-23T03:53:30;20.20;39.10
30148;DHT22;16960;49.404;8.248;2023-03-23T03:55:57;20.10;39.10
30148;DHT22;16960;49.404;8.248;2023-03-23T03:58:25;20.10;39.10
30148;DHT22;16960;49.404;8.248;2023-03-23T04:00:57;20.10;39.70
30148;DHT22;16960;49.404;8.248;2023-03-23T04:03:24;20.10;39.10
30148;DHT22;16960;49.404;8.248;2023-03-23T04:05:52;20.10;39.10
30148;DHT22;16960;49.404;8.248;2023-03-23T04:08:21;20.10;39.10
30148;DHT22;16960;49.404;8.248;2023-03-23T04:10:50;20.10;39.10
30148;DHT22;16960;49.404;8.248;2023-03-23T04:13:17;20.10;39.20
30148;DHT22;16960;49.404;8.248;2023-03-23T04:15:45;20.10;39.20
30148;DHT22;16960;49.404;8.248;2023-03-23T04:18:12;20.10;39.20
30148;DHT22;16960;49.404;8.248;2023-03-23T04:20:41;20.10;39.20
30148;DHT22;16960;49.404;8.248;2023-03-23T04:23:08;20.10;39.20
30148;DHT22;16960;49.404;8.248;2023-03-23T04:25:35;20.10;39.20
30148;DHT22;16960;49.404;8.248;2023-03-23T04:28:04;20.10;39.20
30148;DHT22;16960;49.404;8.248;2023-03-23T04:30:31;20.10;39.20
30148;DHT22;16960;49.404;8.248;2023-03-23T04:32:58;20.10;39.20
30148;DHT22;16960;49.404;8.248;2023-03-23T04:35:27;20.10;39.80
30148;DHT22;16960;49.404;8.248;2023-03-23T04:37:55;20.10;39.30
30148;DHT22;16960;49.404;8.248;2023-03-23T04:40:23;20.00;39.20
30148;DHT22;16960;49.404;8.248;2023-03-23T04:42:50;20.00;39.20
30148;DHT22;16960;49.404;8.248;2023-03-23T04:45:21;20.10;39.30
30148;DHT22;16960;49.404;8.248;2023-03-23T04:47:49;20.00;39.20
30148;DHT22;16960;49.404;8.248;2023-03-23T04:50:23;20.10;39.30
30148;DHT22;16960;49.404;8.248;2023-03-23T04:52:52;20.00;39.20
30148;DHT22;16960;49.404;8.248;2023-03-23T04:55:20;20.00;39.30
30148;DHT22;16960;49.404;8.248;2023-03-23T04:57:47;20.00;39.30
30148;DHT22;16960;49.404;8.248;2023-03-23T05:00:15;20.10;40.00
30148;DHT22;16960;49.404;8.248;2023-03-23T05:02:45;20.00;39.30
30148;DHT22;16960;49.404;8.248;2023-03-23T05:05:17;20.00;39.30
30148;DHT22;16960;49.404;8.248;2023-03-23T05:07:45;20.00;39.30
30148;DHT22;16960;49.404;8.248;2023-03-23T05:10:14;20.00;39.40
30148;DHT22;16960;49.404;8.248;2023-03-23T05:12:42;20.00;39.30
30148;DHT22;16960;49.404;8.248;2023-03-23T05:15:11;20.00;39.30
30148;DHT22;16960;49.404;8.248;2023-03-23T05:17:38;20.00;39.40
30148;DHT22;16960;49.404;8.248;2023-03-23T05:20:09;20.00;39.40
30148;DHT22;16960;49.404;8.248;2023-03-23T05:22:37;20.00;39.40
30148;DHT22;16960;49.404;8.248;2023-03-23T05:25:05;20.00;39.40
30148;DHT22;16960;49.404;8.248;2023-03-23T05:27:34;19.90;39.40
30148;DHT22;16960;49.404;8.248;2023-03-23T05:30:02;20.00;39.40
30148;DHT22;16960;49.404;8.248;2023-03-23T05:32:29;20.00;39.40
30148;DHT22;16960;49.404;8.248;2023-03-23T05:34:56;20.00;39.40
30148;DHT22;16960;49.404;8.248;2023-03-23T05:37:26;20.00;39.30
30148;DHT22;16960;49.404;8.248;2023-03-23T05:39:54;20.00;39.20
30148;DHT22;16960;49.404;8.248;2023-03-23T05:42:21;20.00;39.20
30148;DHT22;16960;49.404;8.248;2023-03-23T05:44:48;20.00;39.20
30148;DHT22;16960;49.404;8.248;2023-03-23T05:47:15;20.00;39.10
30148;DHT22;16960;49.404;8.248;2023-03-23T05:49:42;20.10;39.20
30148;DHT22;16960;49.404;8.248;2023-03-23T05:52:09;20.10;39.10
30148;DHT22;16960;49.404;8.248;2023-03-23T05:54:38;20.10;39.10
30148;DHT22;16960;49.404;8.248;2023-03-23T05:57:05;20.20;39.00
30148;DHT22;16960;49.404;8.248;2023-03-23T05:59:32;20.20;38.90
30148;DHT22;16960;49.404;8.248;2023-03-23T06:01:59;20.30;39.00
30148;DHT22;16960;49.404;8.248;2023-03-23T06:04:26;20.30;38.90
30148;DHT22;16960;49.404;8.248;2023-03-23T06:06:53;20.30;38.90
30148;DHT22;16960;49.404;8.248;2023-03-23T06:09:21;20.30;38.80
30148;DHT22;16960;49.404;8.248;2023-03-23T06:11:50;20.40;38.80
30148;DHT22;16960;49.404;8.248;2023-03-23T06:14:17;20.40;38.80
30148;DHT22;16960;49.404;8.248;2023-03-23T06:16:44;20.40;38.80
30148;DHT22;16960;49.404;8.248;2023-03-23T06:19:11;20.40;38.70
30148;DHT22;16960;49.404;8.248;2023-03-23T06:21:38;20.40;38.70
30148;DHT22;16960;49.404;8.248;2023-03-23T06:24:05;20.50;38.80
30148;DHT22;16960;49.404;8.248;2023-03-23T06:26:35;20.50;38.80
30148;DHT22;16960;49.404;8.248;2023-03-23T06:29:04;20.50;38.80
30148;DHT22;16960;49.404;8.248;2023-03-23T06:31:37;20.50;38.80
30148;DHT22;16960;49.404;8.248;2023-03-23T06:34:04;20.50;39.00
30148;DHT22;16960;49.404;8.248;2023-03-23T06:36:31;20.50;38.80
30148;DHT22;16960;49.404;8.248;2023-03-23T06:38:58;20.60;38.80
30148;DHT22;16960;49.404;8.248;2023-03-23T06:41:26;20.60;38.80
30148;DHT22;16960;49.404;8.248;2023-03-23T06:43:53;20.60;38.90
30148;DHT22;16960;49.404;8.248;2023-03-23T06:46:22;20.60;38.90
30148;DHT22;16960;49.404;8.248;2023-03-23T06:48:49;20.60;38.90
30148;DHT22;16960;49.404;8.248;2023-03-23T06:51:16;20.60;38.90
30148;DHT22;16960;49.404;8.248;2023-03-23T06:53:44;20.60;38.80
30148;DHT22;16960;49.404;8.248;2023-03-23T06:56:11;20.60;38.80
30148;DHT22;16960;49.404;8.248;2023-03-23T06:58:38;20.60;38.80
30148;DHT22;16960;49.404;8.248;2023-03-23T07:01:05;20.70;38.90
30148;DHT22;16960;49.404;8.248;2023-03-23T07:03:35;20.60;38.80
30148;DHT22;16960;49.404;8.248;2023-03-23T07:06:02;20.70;38.90
30148;DHT22;16960;49.404;8.248;2023-03-23T07:08:30;20.60;38.80
30148;DHT22;16960;49.404;8.248;2023-03-23T07:10:57;20.60;38.80
30148;DHT22;16960;49.404;8.248;2023-03-23T07:13:24;20.70;38.90
30148;DHT22;16960;49.404;8.248;2023-03-23T07:15:52;20.60;38.90
30148;DHT22;16960;49.404;8.248;2023-03-23T07:18:20;20.60;38.80
30148;DHT22;16960;49.404;8.248;2023-03-23T07:20:49;20.70;39.50
30148;DHT22;16960;49.404;8.248;2023-03-23T07:23:16;20.60;39.40
30148;DHT22;16960;49.404;8.248;2023-03-23T07:25:44;20.70;39.50
30148;DHT22;16960;49.404;8.248;2023-03-23T07:28:11;20.70;39.50
30148;DHT22;16960;49.404;8.248;2023-03-23T07:30:38;20.70;39.50
30148;DHT22;16960;49.404;8.248;2023-03-23T07:33:06;20.80;39.30
30148;DHT22;16960;49.404;8.248;2023-03-23T07:35:34;20.80;39.20
30148;DHT22;16960;49.404;8.248;2023-03-23T07:38:03;20.80;39.20
30148;DHT22;16960;49.404;8.248;2023-03-23T07:40:30;20.90;39.20
30148;DHT22;16960;49.404;8.248;2023-03-23T07:42:59;20.90;39.20
30148;DHT22;16960;49.404;8.248;2023-03-23T07:45:27;20.90;39.80
30148;DHT22;16960;49.404;8.248;2023-03-23T07:47:54;20.90;39.20
30148;DHT22;16960;49.404;8.248;2023-03-23T07:50:22;21.00;39.20
30148;DHT22;16960;49.404;8.248;2023-03-23T07:52:50;21.00;39.10
30148;DHT22;16960;49.404;8.248;2023-03-23T07:55:19;21.00;39.10
30148;DHT22;16960;49.404;8.248;2023-03-23T07:57:47;21.10;39.30
30148;DHT22;16960;49.404;8.248;2023-03-23T08:00:15;21.10;39.10
30148;DHT22;16960;49.404;8.248;2023-03-23T08:02:45;21.10;39.00
30148;DHT22;16960;49.404;8.248;2023-03-23T08:05:12;21.20;38.90
30148;DHT22;16960;49.404;8.248;2023-03-23T08:07:40;21.20;38.90
30148;DHT22;16960;49.404;8.248;2023-03-23T08:10:09;21.20;38.90
30148;DHT22;16960;49.404;8.248;2023-03-23T08:12:39;21.20;38.90
30148;DHT22;16960;49.404;8.248;2023-03-23T08:15:08;21.30;39.20
30148;DHT22;16960;49.404;8.248;2023-03-23T08:17:39;21.30;39.00
30148;DHT22;16960;49.404;8.248;2023-03-23T08:20:08;21.30;39.10
30148;DHT22;16960;49.404;8.248;2023-03-23T08:22:38;21.30;39.00
30148;DHT22;16960;49.404;8.248;2023-03-23T08:25:08;21.30;39.50
30148;DHT22;16960;49.404;8.248;2023-03-23T08:27:36;21.30;38.90
30148;DHT22;16960;49.404;8.248;2023-03-23T08:30:06;21.30;38.90
30148;DHT22;16960;49.404;8.248;2023-03-23T08:32:33;21.40;38.90
30148;DHT22;16960;49.404;8.248;2023-03-23T08:35:02;21.40;38.90
30148;DHT22;16960;49.404;8.248;2023-03-23T08:37:29;21.40;38.80
30148;DHT22;16960;49.404;8.248;2023-03-23T08:39:56;21.40;38.80
30148;DHT22;16960;49.404;8.248;2023-03-23T08:42:24;21.40;38.80
30148;DHT22;16960;49.404;8.248;2023-03-23T08:44:51;21.40;38.70
30148;DHT22;16960;49.404;8.248;2023-03-23T08:47:20;21.50;38.90
30148;DHT22;16960;49.404;8.248;2023-03-23T08:49:47;21.50;38.80
30148;DHT22;16960;49.404;8.248;2023-03-23T08:52:18;21.50;38.80
30148;DHT22;16960;49.404;8.248;2023-03-23T08:54:45;21.50;38.70
30148;DHT22;16960;49.404;8.248;2023-03-23T08:57:13;21.50;38.70
30148;DHT22;16960;49.404;8.248;2023-03-23T08:59:41;21.50;38.70
30148;DHT22;16960;49.404;8.248;2023-03-23T09:02:10;21.60;38.70
30148;DHT22;16960;49.404;8.248;2023-03-23T09:04:39;21.60;38.70
30148;DHT22;16960;49.404;8.248;2023-03-23T09:07:08;21.60;38.70
30148;DHT22;16960;49.404;8.248;2023-03-23T09:09:36;21.60;38.80
30148;DHT22;16960;49.404;8.248;2023-03-23T09:12:05;21.60;38.70
30148;DHT22;16960;49.404;8.248;2023-03-23T09:14:32;21.60;38.70
30148;DHT22;16960;49.404;8.248;2023-03-23T09:16:59;21.60;38.70
30148;DHT22;16960;49.404;8.248;2023-03-23T09:19:26;21.70;38.70
30148;DHT22;16960;49.404;8.248;2023-03-23T09:21:55;21.70;38.60
30148;DHT22;16960;49.404;8.248;2023-03-23T09:24:22;21.70;38.60
30148;DHT22;16960;49.404;8.248;2023-03-23T09:26:49;21.70;38.60
30148;DHT22;16960;49.404;8.248;2023-03-23T09:29:16;21.70;38.60
30148;DHT22;16960;49.404;8.248;2023-03-23T09:31:44;21.70;38.60
30148;DHT22;16960;49.404;8.248;2023-03-23T09:34:12;21.70;38.60
30148;DHT22;16960;49.404;8.248;2023-03-23T09:36:41;21.70;38.60
30148;DHT22;16960;49.404;8.248;2023-03-23T09:39:10;21.70;38.60
30148;DHT22;16960;49.404;8.248;2023-03-23T09:41:51;21.70;38.60
30148;DHT22;16960;49.404;8.248;2023-03-23T09:44:27;21.70;38.60
30148;DHT22;16960;49.404;8.248;2023-03-23T09:47:02;21.70;38.60
30148;DHT22;16960;49.404;8.248;2023-03-23T09:49:33;21.70;38.60
30148;DHT22;16960;49.404;8.248;2023-03-23T09:52:03;21.70;38.60
30148;DHT22;16960;49.404;8.248;2023-03-23T09:54:35;21.70;38.60
30148;DHT22;16960;49.404;8.248;2023-03-23T09:57:05;21.70;38.60
30148;DHT22;16960;49.404;8.248;2023-03-23T09:59:40;21.70;38.50
30148;DHT22;16960;49.404;8.248;2023-03-23T10:02:13;21.70;38.50
30148;DHT22;16960;49.404;8.248;2023-03-23T10:04:44;21.70;38.50
30148;DHT22;16960;49.404;8.248;2023-03-23T10:07:14;21.80;38.40
30148;DHT22;16960;49.404;8.248;2023-03-23T10:09:44;21.70;38.50
30148;DHT22;16960;49.404;8.248;2023-03-23T10:12:22;21.70;38.50
30148;DHT22;16960;49.404;8.248;2023-03-23T10:14:59;21.80;38.40
30148;DHT22;16960;49.404;8.248;2023-03-23T10:17:30;21.80;38.40
30148;DHT22;16960;49.404;8.248;2023-03-23T10:20:09;21.80;38.40
30148;DHT22;16960;49.404;8.248;2023-03-23T10:22:40;21.80;38.40
30148;DHT22;16960;49.404;8.248;2023-03-23T10:25:16;21.80;38.40
30148;DHT22;16960;49.404;8.248;2023-03-23T10:27:49;21.80;38.30
30148;DHT22;16960;49.404;8.248;2023-03-23T10:30:22;21.90;38.50
30148;DHT22;16960;49.404;8.248;2023-03-23T10:32:53;21.80;38.40
30148;DHT22;16960;49.404;8.248;2023-03-23T10:35:26;21.90;38.40
30148;DHT22;16960;49.404;8.248;2023-03-23T10:37:58;21.90;38.40
30148;DHT22;16960;49.404;8.248;2023-03-23T10:40:29;21.90;38.40
30148;DHT22;16960;49.404;8.248;2023-03-23T10:43:01;21.90;38.40
30148;DHT22;16960;49.404;8.248;2023-03-23T10:45:29;21.90;38.50
30148;DHT22;16960;49.404;8.248;2023-03-23T10:48:04;22.00;38.40
30148;DHT22;16960;49.404;8.248;2023-03-23T10:50:36;21.90;38.40
30148;DHT22;16960;49.404;8.248;2023-03-23T10:53:13;21.90;38.30
30148;DHT22;16960;49.404;8.248;2023-03-23T10:55:44;22.00;38.40
30148;DHT22;16960;49.404;8.248;2023-03-23T10:58:23;22.00;38.90
30148;DHT22;16960;49.404;8.248;2023-03-23T11:00:50;22.00;38.30
30148;DHT22;16960;49.404;8.248;2023-03-23T11:03:25;22.00;38.30
30148;DHT22;16960;49.404;8.248;2023-03-23T11:05:57;22.00;38.30
30148;DHT22;16960;49.404;8.248;2023-03-23T11:08:27;22.00;38.40
30148;DHT22;16960;49.404;8.248;2023-03-23T11:10:59;22.00;38.40
30148;DHT22;16960;49.404;8.248;2023-03-23T11:13:33;22.00;38.30
30148;DHT22;16960;49.404;8.248;2023-03-23T11:16:07;22.00;38.40
30148;DHT22;16960;49.404;8.248;2023-03-23T11:18:37;22.00;38.40
30148;DHT22;16960;49.404;8.248;2023-03-23T11:21:06;22.00;38.40
30148;DHT22;16960;49.404;8.248;2023-03-23T11:23:36;22.00;38.30
30148;DHT22;16960;49.404;8.248;2023-03-23T11:26:11;22.00;38.30
30148;DHT22;16960;49.404;8.248;2023-03-23T11:28:43;22.00;38.30
30148;DHT22;16960;49.404;8.248;2023-03-23T11:31:12;22.00;38.30
30148;DHT22;16960;49.404;8.248;2023-03-23T11:33:47;22.00;38.30
30148;DHT22;16960;49.404;8.248;2023-03-23T11:36:14;22.00;38.30
30148;DHT22;16960;49.404;8.248;2023-03-23T11:38:43;22.00;38.20
30148;DHT22;16960;49.404;8.248;2023-03-23T11:41:16;22.00;38.30
30148;DHT22;16960;49.404;8.248;2023-03-23T11:43:46;22.00;38.30
30148;DHT22;16960;49.404;8.248;2023-03-23T11:46:29;22.00;38.30
30148;DHT22;16960;49.404;8.248;2023-03-23T11:48:58;22.00;38.30
30148;DHT22;16960;49.404;8.248;2023-03-23T11:51:32;22.00;38.90
30148;DHT22;16960;49.404;8.248;2023-03-23T11:54:04;22.10;38.30
30148;DHT22;16960;49.404;8.248;2023-03-23T11:56:39;22.10;38.40
30148;DHT22;16960;49.404;8.248;2023-03-23T11:59:11;22.10;38.40
30148;DHT22;16960;49.404;8.248;2023-03-23T12:01:53;22.10;38.40
30148;DHT22;16960;49.404;8.248;2023-03-23T12:04:40;22.10;38.40
30148;DHT22;16960;49.404;8.248;2023-03-23T12:07:32;22.10;38.40
30148;DHT22;16960;49.404;8.248;2023-03-23T12:10:15;22.10;38.40
30148;DHT22;16960;49.404;8.248;2023-03-23T12:12:51;22.10;39.00
30148;DHT22;16960;49.404;8.248;2023-03-23T12:15:25;22.10;38.50
30148;DHT22;16960;49.404;8.248;2023-03-23T12:17:59;22.20;38.50
30148;DHT22;16960;49.404;8.248;2023-03-23T12:20:35;22.10;38.40
30148;DHT22;16960;49.404;8.248;2023-03-23T12:23:22;22.10;38.40
30148;DHT22;16960;49.404;8.248;2023-03-23T12:26:18;22.20;38.40
30148;DHT22;16960;49.404;8.248;2023-03-23T12:29:23;22.20;38.40
30148;DHT22;16960;49.404;8.248;2023-03-23T12:32:21;22.20;38.50
30148;DHT22;16960;49.404;8.248;2023-03-23T12:34:53;22.20;38.50
30148;DHT22;16960;49.404;8.248;2023-03-23T12:37:34;22.20;38.50
30148;DHT22;16960;49.404;8.248;2023-03-23T12:40:23;22.20;38.40
30148;DHT22;16960;49.404;8.248;2023-03-23T12:42:55;22.20;38.30
30148;DHT22;16960;49.404;8.248;2023-03-23T12:45:55;22.20;38.40
30148;DHT22;16960;49.404;8.248;2023-03-23T12:48:28;22.30;38.40
30148;DHT22;16960;49.404;8.248;2023-03-23T12:51:14;22.30;38.50
30148;DHT22;16960;49.404;8.248;2023-03-23T12:53:50;22.30;38.40
30148;DHT22;16960;49.404;8.248;2023-03-23T12:56:23;22.30;38.40
30148;DHT22;16960;49.404;8.248;2023-03-23T12:58:56;22.30;38.40
30148;DHT22;16960;49.404;8.248;2023-03-23T13:01:30;22.30;38.40
30148;DHT22;16960;49.404;8.248;2023-03-23T13:04:00;22.30;38.40
30148;DHT22;16960;49.404;8.248;2023-03-23T13:06:31;22.30;38.40
30148;DHT22;16960;49.404;8.248;2023-03-23T13:09:03;22.30;38.40
30148;DHT22;16960;49.404;8.248;2023-03-23T13:11:34;22.30;38.40
30148;DHT22;16960;49.404;8.248;2023-03-23T13:14:10;22.30;38.40
30148;DHT22;16960;49.404;8.248;2023-03-23T13:16:53;22.30;38.40
30148;DHT22;16960;49.404;8.248;2023-03-23T13:19:27;22.30;38.30
30148;DHT22;16960;49.404;8.248;2023-03-23T13:22:02;22.30;38.30
30148;DHT22;16960;49.404;8.248;2023-03-23T13:24:35;22.30;38.30
30148;DHT22;16960;49.404;8.248;2023-03-23T13:27:04;22.40;38.20
30148;DHT22;16960;49.404;8.248;2023-03-23T13:29:32;22.30;38.20
30148;DHT22;16960;49.404;8.248;2023-03-23T13:32:12;22.30;38.20
30148;DHT22;16960;49.404;8.248;2023-03-23T13:34:40;22.30;38.20
30148;DHT22;16960;49.404;8.248;2023-03-23T13:37:11;22.30;38.30
30148;DHT22;16960;49.404;8.248;2023-03-23T13:39:49;22.30;38.30
30148;DHT22;16960;49.404;8.248;2023-03-23T13:42:20;22.30;38.30
30148;DHT22;16960;49.404;8.248;2023-03-23T13:45:05;22.30;38.20
30148;DHT22;16960;49.404;8.248;2023-03-23T13:47:39;22.30;38.20
30148;DHT22;16960;49.404;8.248;2023-03-23T13:50:11;22.30;38.20
30148;DHT22;16960;49.404;8.248;2023-03-23T13:52:53;22.30;38.20
30148;DHT22;16960;49.404;8.248;2023-03-23T13:55:38;22.30;38.20
30148;DHT22;16960;49.404;8.248;2023-03-23T13:58:22;22.30;38.20
30148;DHT22;16960;49.404;8.248;2023-03-23T14:01:02;22.30;38.20
30148;DHT22;16960;49.404;8.248;2023-03-23T14:03:36;22.30;38.30
30148;DHT22;16960;49.404;8.248;2023-03-23T14:06:06;22.30;38.20
30148;DHT22;16960;49.404;8.248;2023-03-23T14:08:39;22.30;38.20
30148;DHT22;16960;49.404;8.248;2023-03-23T14:11:13;22.30;38.30
30148;DHT22;16960;49.404;8.248;2023-03-23T14:13:47;22.30;38.30
30148;DHT22;16960;49.404;8.248;2023-03-23T14:16:19;22.30;38.20
30148;DHT22;16960;49.404;8.248;2023-03-23T14:18:54;22.30;38.20
30148;DHT22;16960;49.404;8.248;2023-03-23T14:21:30;22.30;38.20
30148;DHT22;16960;49.404;8.248;2023-03-23T14:24:00;22.30;38.20
30148;DHT22;16960;49.404;8.248;2023-03-23T14:26:27;22.30;38.30
30148;DHT22;16960;49.404;8.248;2023-03-23T14:28:54;22.30;38.30
30148;DHT22;16960;49.404;8.248;2023-03-23T14:31:23;22.30;38.30
30148;DHT22;16960;49.404;8.248;2023-03-23T14:33:54;22.30;38.20
30148;DHT22;16960;49.404;8.248;2023-03-23T14:36:22;22.30;38.20
30148;DHT22;16960;49.404;8.248;2023-03-23T14:38:57;22.30;38.10
30148;DHT22;16960;49.404;8.248;2023-03-23T14:41:29;22.40;38.10
30148;DHT22;16960;49.404;8.248;2023-03-23T14:43:56;22.40;38.10
30148;DHT22;16960;49.404;8.248;2023-03-23T14:46:24;22.40;38.10
30148;DHT22;16960;49.404;8.248;2023-03-23T14:48:53;22.40;38.10
30148;DHT22;16960;49.404;8.248;2023-03-23T14:51:21;22.40;38.10
30148;DHT22;16960;49.404;8.248;2023-03-23T14:53:48;22.40;38.10
30148;DHT22;16960;49.404;8.248;2023-03-23T14:56:19;22.40;38.10
30148;DHT22;16960;49.404;8.248;2023-03-23T14:58:49;22.40;38.20
30148;DHT22;16960;49.404;8.248;2023-03-23T15:01:19;22.40;38.20
30148;DHT22;16960;49.404;8.248;2023-03-23T15:03:53;22.40;38.20
30148;DHT22;16960;49.404;8.248;2023-03-23T15:06:24;22.40;38.10
30148;DHT22;16960;49.404;8.248;2023-03-23T15:08:55;22.40;38.10
30148;DHT22;16960;49.404;8.248;2023-03-23T15:11:26;22.40;38.10
30148;DHT22;16960;49.404;8.248;2023-03-23T15:13:57;22.40;38.30
30148;DHT22;16960;49.404;8.248;2023-03-23T15:16:26;22.30;38.20
30148;DHT22;16960;49.404;8.248;2023-03-23T15:18:57;22.30;38.30
30148;DHT22;16960;49.404;8.248;2023-03-23T15:21:28;22.30;38.40
30148;DHT22;16960;49.404;8.248;2023-03-23T15:23:56;22.20;38.30
30148;DHT22;16960;49.404;8.248;2023-03-23T15:26:32;22.20;38.40
30148;DHT22;16960;49.404;8.248;2023-03-23T15:29:15;22.20;38.50
30148;DHT22;16960;49.404;8.248;2023-03-23T15:31:45;22.20;38.60
30148;DHT22;16960;49.404;8.248;2023-03-23T15:34:23;22.10;38.60
30148;DHT22;16960;49.404;8.248;2023-03-23T15:36:55;22.10;38.70
30148;DHT22;16960;49.404;8.248;2023-03-23T15:39:22;22.00;38.70
30148;DHT22;16960;49.404;8.248;2023-03-23T15:41:51;22.10;38.90
30148;DHT22;16960;49.404;8.248;2023-03-23T15:44:27;22.00;38.80
30148;DHT22;16960;49.404;8.248;2023-03-23T15:49:46;22.00;38.90
30148;DHT22;16960;49.404;8.248;2023-03-23T15:52:25;22.00;39.00
30148;DHT22;16960;49.404;8.248;2023-03-23T15:54:52;22.00;39.00
30148;DHT22;16960;49.404;8.248;2023-03-23T15:57:19;21.90;39.10
30148;DHT22;16960;49.404;8.248;2023-03-23T15:59:46;21.90;39.60
30148;DHT22;16960;49.404;8.248;2023-03-23T16:02:19;21.90;39.10
30148;DHT22;16960;49.404;8.248;2023-03-23T16:04:49;21.90;39.10
30148;DHT22;16960;49.404;8.248;2023-03-23T16:07:18;21.90;39.10